Aérodrome :
LOGIN :

S'inscrire | Disclaimer

   EN    FR    IT 

 










Légende :    VFR   VFR Marginal   IFR   IFR Intensif   IFR Très Intensif
Visi : 
Plafond : 
>= 8 km
>= 3000ft
5 à 8 km
1000 à 3000 ft
1500m à 5 km
500 à 1000 ft
800 à 1500m
200 à 500 ft
< 800m
< 200 ft
Symboles :   Orages  Brouillard  Fortes neiges  Fortes précipitations  Vent > 20 kt
SIGMETs :   Divers  Orages  Givrage  Turbulence  Onde Orograph.  Cendres Volcan.







- Altitude de l'aérodrome : 0 ft


ETEB - Ansbach Army Heliport

DERNIER METAR :
  • 182156Z AUTO 35005KT 9999 CLR 20/09 A3006 RMK AO2 SLP171 T02030086 $

METARs EXPIRÉS :
  • 182056Z AUTO 34003KT 9999 CLR 21/09 A3005 RMK AO2 SLP168 60000 T02090092 53006 $
  • 181956Z AUTO 34004KT 9999 CLR 22/09 A3004 RMK AO2 SLP165 T02150094 $

TAF TAF ETEB
Valide du 18 à 21h jusqu'au 20 à 03h UTC


182112Z 1821/2003 VRB06KT 9999 FEW060 QNH3004INS
BECMG 1909/1910 34009KT 9999 FEW050 QNH3002INS
BECMG 1916/1917 VRB06KT 9999 FEW060 QNH3000INS TX26/1912Z TN15/1904Z
Pas de NOTAMs connus pour ce terrain.



MET'MAP, la Météo Aéronautique d'un coup d'oeil ! - Copyright ORBIFLY Décembre 2007 - Disclaimer

ORBIFLY MET'MAP TEAM :

Programmation & Développement : Alexandra Zaïnal
Conception & Développement : Baudouin d'Aumeries
Co-Programmation & Développement : Marc-Olivier Méhu
Soutien technique & logistique : Manuel Goepfert

Contact : metmap@orbifly.com




SOURCES & CREDITS :

   NOAA